sensor_id;sensor_type;location;lat;lon;timestamp;temperature;humidity
18690;DHT22;9782;52.930;15.562;2023-05-13T00:00:38;11.60;33.20
18690;DHT22;9782;52.930;15.562;2023-05-13T00:03:04;11.50;32.90
18690;DHT22;9782;52.930;15.562;2023-05-13T00:05:31;11.40;31.80
18690;DHT22;9782;52.930;15.562;2023-05-13T00:07:58;11.30;33.20
18690;DHT22;9782;52.930;15.562;2023-05-13T00:10:26;11.30;37.00
18690;DHT22;9782;52.930;15.562;2023-05-13T00:12:53;11.20;39.20
18690;DHT22;9782;52.930;15.562;2023-05-13T00:15:20;11.20;39.70
18690;DHT22;9782;52.930;15.562;2023-05-13T00:17:48;11.10;40.70
18690;DHT22;9782;52.930;15.562;2023-05-13T00:20:15;11.10;39.30
18690;DHT22;9782;52.930;15.562;2023-05-13T00:22:41;11.00;40.50
18690;DHT22;9782;52.930;15.562;2023-05-13T00:25:09;11.00;42.00
18690;DHT22;9782;52.930;15.562;2023-05-13T00:27:35;10.90;42.90
18690;DHT22;9782;52.930;15.562;2023-05-13T00:30:02;10.90;44.90
18690;DHT22;9782;52.930;15.562;2023-05-13T00:32:30;10.90;46.60
18690;DHT22;9782;52.930;15.562;2023-05-13T00:34:58;10.80;45.60
18690;DHT22;9782;52.930;15.562;2023-05-13T00:37:25;10.80;43.60
18690;DHT22;9782;52.930;15.562;2023-05-13T00:39:51;10.80;47.60
18690;DHT22;9782;52.930;15.562;2023-05-13T00:42:18;10.90;45.00
18690;DHT22;9782;52.930;15.562;2023-05-13T00:44:45;10.90;44.60
18690;DHT22;9782;52.930;15.562;2023-05-13T00:47:12;10.90;45.70
18690;DHT22;9782;52.930;15.562;2023-05-13T00:49:39;10.80;46.40
18690;DHT22;9782;52.930;15.562;2023-05-13T00:52:07;10.80;47.90
18690;DHT22;9782;52.930;15.562;2023-05-13T00:54:34;10.80;47.60
18690;DHT22;9782;52.930;15.562;2023-05-13T00:57:01;10.70;48.90
18690;DHT22;9782;52.930;15.562;2023-05-13T00:59:28;10.70;49.00
18690;DHT22;9782;52.930;15.562;2023-05-13T01:02:02;10.70;52.40
18690;DHT22;9782;52.930;15.562;2023-05-13T01:04:38;10.60;52.50
18690;DHT22;9782;52.930;15.562;2023-05-13T01:07:13;10.60;54.10
18690;DHT22;9782;52.930;15.562;2023-05-13T01:09:51;10.50;53.50
18690;DHT22;9782;52.930;15.562;2023-05-13T01:12:25;10.50;54.40
18690;DHT22;9782;52.930;15.562;2023-05-13T01:15:04;10.50;56.30
18690;DHT22;9782;52.930;15.562;2023-05-13T01:17:33;10.50;56.30
18690;DHT22;9782;52.930;15.562;2023-05-13T01:20:02;10.50;57.70
18690;DHT22;9782;52.930;15.562;2023-05-13T01:22:31;10.40;57.90
18690;DHT22;9782;52.930;15.562;2023-05-13T01:24:58;10.40;57.00
18690;DHT22;9782;52.930;15.562;2023-05-13T01:27:25;10.40;59.20
18690;DHT22;9782;52.930;15.562;2023-05-13T01:29:52;10.30;57.20
18690;DHT22;9782;52.930;15.562;2023-05-13T01:32:21;10.30;60.60
18690;DHT22;9782;52.930;15.562;2023-05-13T01:34:49;10.20;62.80
18690;DHT22;9782;52.930;15.562;2023-05-13T01:37:17;10.20;62.50
18690;DHT22;9782;52.930;15.562;2023-05-13T01:39:46;10.20;63.80
18690;DHT22;9782;52.930;15.562;2023-05-13T01:42:13;10.20;65.10
18690;DHT22;9782;52.930;15.562;2023-05-13T01:44:40;10.20;65.90
18690;DHT22;9782;52.930;15.562;2023-05-13T01:47:07;10.10;63.10
18690;DHT22;9782;52.930;15.562;2023-05-13T01:49:33;10.10;65.70
18690;DHT22;9782;52.930;15.562;2023-05-13T01:52:00;10.10;69.00
18690;DHT22;9782;52.930;15.562;2023-05-13T01:54:28;10.10;68.90
18690;DHT22;9782;52.930;15.562;2023-05-13T01:56:56;10.10;70.30
18690;DHT22;9782;52.930;15.562;2023-05-13T01:59:23;10.10;73.40
18690;DHT22;9782;52.930;15.562;2023-05-13T02:01:50;10.10;76.00
18690;DHT22;9782;52.930;15.562;2023-05-13T02:04:17;10.10;78.50
18690;DHT22;9782;52.930;15.562;2023-05-13T02:06:44;10.10;77.80
18690;DHT22;9782;52.930;15.562;2023-05-13T02:09:10;10.10;80.20
18690;DHT22;9782;52.930;15.562;2023-05-13T02:11:37;10.10;81.50
18690;DHT22;9782;52.930;15.562;2023-05-13T02:14:05;10.10;82.20
18690;DHT22;9782;52.930;15.562;2023-05-13T02:16:32;10.20;84.00
18690;DHT22;9782;52.930;15.562;2023-05-13T02:18:59;10.30;81.30
18690;DHT22;9782;52.930;15.562;2023-05-13T02:21:26;10.30;80.30
18690;DHT22;9782;52.930;15.562;2023-05-13T02:23:53;10.40;78.90
18690;DHT22;9782;52.930;15.562;2023-05-13T02:26:20;10.50;78.00
18690;DHT22;9782;52.930;15.562;2023-05-13T02:28:46;10.60;76.60
18690;DHT22;9782;52.930;15.562;2023-05-13T02:31:15;10.60;82.00
18690;DHT22;9782;52.930;15.562;2023-05-13T02:33:41;10.70;82.90
18690;DHT22;9782;52.930;15.562;2023-05-13T02:36:08;10.70;81.00
18690;DHT22;9782;52.930;15.562;2023-05-13T02:38:35;10.70;80.10
18690;DHT22;9782;52.930;15.562;2023-05-13T02:41:02;10.70;79.20
18690;DHT22;9782;52.930;15.562;2023-05-13T02:43:29;10.80;79.40
18690;DHT22;9782;52.930;15.562;2023-05-13T02:45:56;10.90;73.10
18690;DHT22;9782;52.930;15.562;2023-05-13T02:48:24;11.00;78.10
18690;DHT22;9782;52.930;15.562;2023-05-13T02:50:51;11.10;78.60
18690;DHT22;9782;52.930;15.562;2023-05-13T02:53:18;11.10;64.80
18690;DHT22;9782;52.930;15.562;2023-05-13T02:55:45;11.20;69.40
18690;DHT22;9782;52.930;15.562;2023-05-13T02:58:12;11.30;75.60
18690;DHT22;9782;52.930;15.562;2023-05-13T03:00:39;11.30;74.00
18690;DHT22;9782;52.930;15.562;2023-05-13T03:03:07;11.40;77.20
18690;DHT22;9782;52.930;15.562;2023-05-13T03:05:35;11.40;76.60
18690;DHT22;9782;52.930;15.562;2023-05-13T03:08:02;11.40;72.60
18690;DHT22;9782;52.930;15.562;2023-05-13T03:10:29;11.30;75.60
18690;DHT22;9782;52.930;15.562;2023-05-13T03:12:56;11.30;95.70
18690;DHT22;9782;52.930;15.562;2023-05-13T03:15:23;11.20;74.80
18690;DHT22;9782;52.930;15.562;2023-05-13T03:17:49;11.10;78.70
18690;DHT22;9782;52.930;15.562;2023-05-13T03:20:16;11.00;73.60
18690;DHT22;9782;52.930;15.562;2023-05-13T03:22:45;10.90;77.90
18690;DHT22;9782;52.930;15.562;2023-05-13T03:25:12;10.80;80.10
18690;DHT22;9782;52.930;15.562;2023-05-13T03:27:38;10.70;85.30
18690;DHT22;9782;52.930;15.562;2023-05-13T03:30:06;10.60;85.90
18690;DHT22;9782;52.930;15.562;2023-05-13T03:32:33;10.60;90.00
18690;DHT22;9782;52.930;15.562;2023-05-13T03:35:00;10.60;90.30
18690;DHT22;9782;52.930;15.562;2023-05-13T03:37:28;10.60;90.50
18690;DHT22;9782;52.930;15.562;2023-05-13T03:39:56;10.60;89.30
18690;DHT22;9782;52.930;15.562;2023-05-13T03:42:23;10.60;90.00
18690;DHT22;9782;52.930;15.562;2023-05-13T03:44:50;10.60;90.40
18690;DHT22;9782;52.930;15.562;2023-05-13T03:47:17;10.80;85.70
18690;DHT22;9782;52.930;15.562;2023-05-13T03:49:44;11.10;94.40
18690;DHT22;9782;52.930;15.562;2023-05-13T03:52:12;11.50;92.80
18690;DHT22;9782;52.930;15.562;2023-05-13T03:54:39;11.90;94.50
18690;DHT22;9782;52.930;15.562;2023-05-13T03:57:07;12.30;93.60
18690;DHT22;9782;52.930;15.562;2023-05-13T03:59:34;12.70;94.30
18690;DHT22;9782;52.930;15.562;2023-05-13T04:02:01;13.00;92.20
18690;DHT22;9782;52.930;15.562;2023-05-13T04:04:28;13.30;90.30
18690;DHT22;9782;52.930;15.562;2023-05-13T04:06:55;13.50;91.60
18690;DHT22;9782;52.930;15.562;2023-05-13T04:09:21;13.70;90.60
18690;DHT22;9782;52.930;15.562;2023-05-13T04:11:48;14.00;88.40
18690;DHT22;9782;52.930;15.562;2023-05-13T04:14:16;14.10;86.90
18690;DHT22;9782;52.930;15.562;2023-05-13T04:16:43;14.40;99.50
18690;DHT22;9782;52.930;15.562;2023-05-13T04:19:10;14.60;64.60
18690;DHT22;9782;52.930;15.562;2023-05-13T04:21:37;14.80;82.70
18690;DHT22;9782;52.930;15.562;2023-05-13T04:24:04;15.00;78.90
18690;DHT22;9782;52.930;15.562;2023-05-13T04:26:31;15.20;79.80
18690;DHT22;9782;52.930;15.562;2023-05-13T04:28:58;15.30;68.70
18690;DHT22;9782;52.930;15.562;2023-05-13T04:31:27;15.50;63.00
18690;DHT22;9782;52.930;15.562;2023-05-13T04:33:55;15.60;66.70
18690;DHT22;9782;52.930;15.562;2023-05-13T04:36:22;15.80;70.40
18690;DHT22;9782;52.930;15.562;2023-05-13T04:38:49;15.90;62.50
18690;DHT22;9782;52.930;15.562;2023-05-13T04:41:16;16.10;66.30
18690;DHT22;9782;52.930;15.562;2023-05-13T04:43:43;16.30;66.60
18690;DHT22;9782;52.930;15.562;2023-05-13T04:46:10;16.40;61.60
18690;DHT22;9782;52.930;15.562;2023-05-13T04:48:38;16.50;67.00
18690;DHT22;9782;52.930;15.562;2023-05-13T04:51:05;16.60;53.20
18690;DHT22;9782;52.930;15.562;2023-05-13T04:53:33;16.70;61.90
18690;DHT22;9782;52.930;15.562;2023-05-13T04:58:37;16.40;65.30
18690;DHT22;9782;52.930;15.562;2023-05-13T05:01:04;16.00;47.10
18690;DHT22;9782;52.930;15.562;2023-05-13T05:03:33;15.70;49.70
18690;DHT22;9782;52.930;15.562;2023-05-13T05:06:03;15.40;50.60
18690;DHT22;9782;52.930;15.562;2023-05-13T05:08:30;15.10;44.20
18690;DHT22;9782;52.930;15.562;2023-05-13T05:10:58;14.90;59.10
18690;DHT22;9782;52.930;15.562;2023-05-13T05:16:01;14.50;66.30
18690;DHT22;9782;52.930;15.562;2023-05-13T05:28:47;14.30;70.70
18690;DHT22;9782;52.930;15.562;2023-05-13T05:33:50;14.20;74.20
18690;DHT22;9782;52.930;15.562;2023-05-13T05:36:17;14.30;52.20
18690;DHT22;9782;52.930;15.562;2023-05-13T05:38:44;14.30;55.80
18690;DHT22;9782;52.930;15.562;2023-05-13T05:41:12;14.30;57.50
18690;DHT22;9782;52.930;15.562;2023-05-13T05:43:39;14.30;55.40
18690;DHT22;9782;52.930;15.562;2023-05-13T05:46:07;14.30;55.90
18690;DHT22;9782;52.930;15.562;2023-05-13T05:48:34;14.40;59.30
18690;DHT22;9782;52.930;15.562;2023-05-13T05:51:01;14.50;65.00
18690;DHT22;9782;52.930;15.562;2023-05-13T05:53:28;14.60;61.90
18690;DHT22;9782;52.930;15.562;2023-05-13T05:55:56;14.60;63.10
18690;DHT22;9782;52.930;15.562;2023-05-13T05:58:23;14.60;59.10
18690;DHT22;9782;52.930;15.562;2023-05-13T06:00:51;14.70;60.50
18690;DHT22;9782;52.930;15.562;2023-05-13T06:08:25;14.80;83.20
18690;DHT22;9782;52.930;15.562;2023-05-13T06:10:55;14.90;74.90
18690;DHT22;9782;52.930;15.562;2023-05-13T06:13:22;15.00;79.20
18690;DHT22;9782;52.930;15.562;2023-05-13T06:15:49;15.10;69.00
18690;DHT22;9782;52.930;15.562;2023-05-13T06:18:16;15.10;75.10
18690;DHT22;9782;52.930;15.562;2023-05-13T06:20:43;15.20;83.50
18690;DHT22;9782;52.930;15.562;2023-05-13T06:23:10;15.20;64.70
18690;DHT22;9782;52.930;15.562;2023-05-13T06:25:40;15.30;69.60
18690;DHT22;9782;52.930;15.562;2023-05-13T06:30:46;15.60;90.00
18690;DHT22;9782;52.930;15.562;2023-05-13T06:35:48;15.80;90.30
18690;DHT22;9782;52.930;15.562;2023-05-13T06:46:02;16.40;99.90
18690;DHT22;9782;52.930;15.562;2023-05-13T06:53:40;16.90;99.90
18690;DHT22;9782;52.930;15.562;2023-05-13T06:56:07;17.00;75.10
18690;DHT22;9782;52.930;15.562;2023-05-13T06:58:34;17.20;85.30
18690;DHT22;9782;52.930;15.562;2023-05-13T07:01:02;17.30;69.80
18690;DHT22;9782;52.930;15.562;2023-05-13T07:03:29;17.40;71.00
18690;DHT22;9782;52.930;15.562;2023-05-13T07:06:01;17.40;71.60
18690;DHT22;9782;52.930;15.562;2023-05-13T07:08:31;17.50;81.00
18690;DHT22;9782;52.930;15.562;2023-05-13T07:10:57;17.70;72.90
18690;DHT22;9782;52.930;15.562;2023-05-13T07:13:24;17.70;72.80
18690;DHT22;9782;52.930;15.562;2023-05-13T07:15:51;17.80;72.30
18690;DHT22;9782;52.930;15.562;2023-05-13T07:18:20;18.00;78.40
18690;DHT22;9782;52.930;15.562;2023-05-13T07:20:47;18.10;64.80
18690;DHT22;9782;52.930;15.562;2023-05-13T07:23:14;18.20;58.70
18690;DHT22;9782;52.930;15.562;2023-05-13T07:25:41;18.40;64.30
18690;DHT22;9782;52.930;15.562;2023-05-13T07:28:07;18.50;67.30
18690;DHT22;9782;52.930;15.562;2023-05-13T07:30:34;18.50;71.40
18690;DHT22;9782;52.930;15.562;2023-05-13T07:33:01;18.60;68.90
18690;DHT22;9782;52.930;15.562;2023-05-13T07:35:31;18.70;57.40
18690;DHT22;9782;52.930;15.562;2023-05-13T07:38:00;18.80;62.30
18690;DHT22;9782;52.930;15.562;2023-05-13T07:40:28;18.80;62.90
18690;DHT22;9782;52.930;15.562;2023-05-13T07:42:55;18.90;53.30
18690;DHT22;9782;52.930;15.562;2023-05-13T07:45:22;19.00;53.10
18690;DHT22;9782;52.930;15.562;2023-05-13T07:47:52;19.10;56.10
18690;DHT22;9782;52.930;15.562;2023-05-13T07:50:19;19.20;51.70
18690;DHT22;9782;52.930;15.562;2023-05-13T07:52:48;19.30;51.70
18690;DHT22;9782;52.930;15.562;2023-05-13T07:55:16;19.50;45.30
18690;DHT22;9782;52.930;15.562;2023-05-13T07:57:43;19.70;49.00
18690;DHT22;9782;52.930;15.562;2023-05-13T08:00:11;19.80;41.40
18690;DHT22;9782;52.930;15.562;2023-05-13T08:02:38;19.90;48.40
18690;DHT22;9782;52.930;15.562;2023-05-13T08:05:06;20.00;47.80
18690;DHT22;9782;52.930;15.562;2023-05-13T08:07:32;20.10;42.50
18690;DHT22;9782;52.930;15.562;2023-05-13T08:10:01;20.20;54.10
18690;DHT22;9782;52.930;15.562;2023-05-13T08:20:13;20.20;45.30
18690;DHT22;9782;52.930;15.562;2023-05-13T08:22:40;20.30;29.00
18690;DHT22;9782;52.930;15.562;2023-05-13T08:33:08;20.50;40.30
18690;DHT22;9782;52.930;15.562;2023-05-13T08:45:56;20.90;39.50
18690;DHT22;9782;52.930;15.562;2023-05-13T08:48:28;21.00;39.40
18690;DHT22;9782;52.930;15.562;2023-05-13T08:50:56;20.90;47.40
18690;DHT22;9782;52.930;15.562;2023-05-13T08:53:24;20.90;45.70
18690;DHT22;9782;52.930;15.562;2023-05-13T08:55:51;21.00;52.20
18690;DHT22;9782;52.930;15.562;2023-05-13T08:58:18;21.00;51.90
18690;DHT22;9782;52.930;15.562;2023-05-13T09:00:46;21.10;69.00
18690;DHT22;9782;52.930;15.562;2023-05-13T09:03:14;21.20;54.90
18690;DHT22;9782;52.930;15.562;2023-05-13T09:05:43;21.30;63.30
18690;DHT22;9782;52.930;15.562;2023-05-13T09:08:10;21.30;79.30
18690;DHT22;9782;52.930;15.562;2023-05-13T09:10:37;21.30;97.30
18690;DHT22;9782;52.930;15.562;2023-05-13T09:13:04;21.40;89.00
18690;DHT22;9782;52.930;15.562;2023-05-13T09:15:31;21.40;88.10
18690;DHT22;9782;52.930;15.562;2023-05-13T09:18:00;21.30;99.90
18690;DHT22;9782;52.930;15.562;2023-05-13T09:20:27;21.20;99.90
18690;DHT22;9782;52.930;15.562;2023-05-13T09:22:57;21.10;99.90
18690;DHT22;9782;52.930;15.562;2023-05-13T09:25:25;21.20;99.90
18690;DHT22;9782;52.930;15.562;2023-05-13T09:27:55;21.20;99.90
18690;DHT22;9782;52.930;15.562;2023-05-13T09:30:23;21.40;99.90
18690;DHT22;9782;52.930;15.562;2023-05-13T09:33:05;21.40;99.90
18690;DHT22;9782;52.930;15.562;2023-05-13T09:35:33;21.40;99.90
18690;DHT22;9782;52.930;15.562;2023-05-13T09:38:11;21.50;99.90
18690;DHT22;9782;52.930;15.562;2023-05-13T09:40:39;21.40;99.90
18690;DHT22;9782;52.930;15.562;2023-05-13T09:43:06;21.60;99.90
18690;DHT22;9782;52.930;15.562;2023-05-13T09:45:33;21.70;99.90
18690;DHT22;9782;52.930;15.562;2023-05-13T09:48:00;21.90;99.90
18690;DHT22;9782;52.930;15.562;2023-05-13T09:50:27;22.20;99.90
18690;DHT22;9782;52.930;15.562;2023-05-13T09:52:54;22.60;99.90
18690;DHT22;9782;52.930;15.562;2023-05-13T09:55:22;22.90;99.90
18690;DHT22;9782;52.930;15.562;2023-05-13T09:57:49;22.90;99.90
18690;DHT22;9782;52.930;15.562;2023-05-13T10:00:16;23.10;99.90
18690;DHT22;9782;52.930;15.562;2023-05-13T10:02:43;23.10;99.90
18690;DHT22;9782;52.930;15.562;2023-05-13T10:05:11;23.00;99.90
18690;DHT22;9782;52.930;15.562;2023-05-13T10:07:38;23.00;99.90
18690;DHT22;9782;52.930;15.562;2023-05-13T10:10:07;23.20;99.90
18690;DHT22;9782;52.930;15.562;2023-05-13T10:12:37;23.60;99.90
18690;DHT22;9782;52.930;15.562;2023-05-13T10:15:07;23.90;99.90
18690;DHT22;9782;52.930;15.562;2023-05-13T10:17:37;24.00;99.90
18690;DHT22;9782;52.930;15.562;2023-05-13T10:20:05;23.90;99.90
18690;DHT22;9782;52.930;15.562;2023-05-13T10:22:32;23.90;99.90
18690;DHT22;9782;52.930;15.562;2023-05-13T10:25:01;23.80;99.90
18690;DHT22;9782;52.930;15.562;2023-05-13T10:27:31;23.70;99.90
18690;DHT22;9782;52.930;15.562;2023-05-13T10:30:01;23.60;99.90
18690;DHT22;9782;52.930;15.562;2023-05-13T10:32:29;23.50;99.90
18690;DHT22;9782;52.930;15.562;2023-05-13T10:35:01;23.30;99.90
18690;DHT22;9782;52.930;15.562;2023-05-13T10:37:53;23.20;99.90
18690;DHT22;9782;52.930;15.562;2023-05-13T10:41:00;23.20;99.90
18690;DHT22;9782;52.930;15.562;2023-05-13T10:43:34;23.50;99.90
18690;DHT22;9782;52.930;15.562;2023-05-13T10:46:04;23.50;99.90
18690;DHT22;9782;52.930;15.562;2023-05-13T10:48:41;23.60;99.90
18690;DHT22;9782;52.930;15.562;2023-05-13T10:51:09;23.80;99.90
18690;DHT22;9782;52.930;15.562;2023-05-13T10:53:43;24.20;99.90
18690;DHT22;9782;52.930;15.562;2023-05-13T10:56:10;24.50;99.90
18690;DHT22;9782;52.930;15.562;2023-05-13T10:58:36;24.70;99.90
18690;DHT22;9782;52.930;15.562;2023-05-13T11:01:16;24.80;99.90
18690;DHT22;9782;52.930;15.562;2023-05-13T11:03:54;24.70;99.90
18690;DHT22;9782;52.930;15.562;2023-05-13T11:06:22;24.60;99.90
18690;DHT22;9782;52.930;15.562;2023-05-13T11:08:50;24.80;99.90
18690;DHT22;9782;52.930;15.562;2023-05-13T11:11:29;25.00;99.90
18690;DHT22;9782;52.930;15.562;2023-05-13T11:14:12;25.20;99.90
18690;DHT22;9782;52.930;15.562;2023-05-13T11:16:47;25.20;99.90
18690;DHT22;9782;52.930;15.562;2023-05-13T11:19:21;25.10;99.90
18690;DHT22;9782;52.930;15.562;2023-05-13T11:21:50;25.00;99.90
18690;DHT22;9782;52.930;15.562;2023-05-13T11:24:18;25.00;99.90
18690;DHT22;9782;52.930;15.562;2023-05-13T11:26:47;25.00;99.90
18690;DHT22;9782;52.930;15.562;2023-05-13T11:29:14;25.10;99.90
18690;DHT22;9782;52.930;15.562;2023-05-13T11:31:46;25.20;99.90
18690;DHT22;9782;52.930;15.562;2023-05-13T11:34:14;25.30;99.90
18690;DHT22;9782;52.930;15.562;2023-05-13T11:36:44;25.50;99.90
18690;DHT22;9782;52.930;15.562;2023-05-13T11:39:13;25.80;99.90
18690;DHT22;9782;52.930;15.562;2023-05-13T11:41:43;25.90;99.90
18690;DHT22;9782;52.930;15.562;2023-05-13T11:44:11;25.90;99.90
18690;DHT22;9782;52.930;15.562;2023-05-13T11:46:50;25.90;99.90
18690;DHT22;9782;52.930;15.562;2023-05-13T11:49:30;25.80;99.90
18690;DHT22;9782;52.930;15.562;2023-05-13T11:51:58;25.80;99.90
18690;DHT22;9782;52.930;15.562;2023-05-13T11:54:24;25.90;99.90
18690;DHT22;9782;52.930;15.562;2023-05-13T11:56:51;25.90;99.90
18690;DHT22;9782;52.930;15.562;2023-05-13T11:59:18;25.90;99.90
18690;DHT22;9782;52.930;15.562;2023-05-13T12:01:45;25.90;99.90
18690;DHT22;9782;52.930;15.562;2023-05-13T12:04:13;25.90;99.90
18690;DHT22;9782;52.930;15.562;2023-05-13T12:06:44;26.00;99.90
18690;DHT22;9782;52.930;15.562;2023-05-13T12:09:11;26.00;99.90
18690;DHT22;9782;52.930;15.562;2023-05-13T12:11:39;26.10;99.90
18690;DHT22;9782;52.930;15.562;2023-05-13T12:14:07;26.10;99.90
18690;DHT22;9782;52.930;15.562;2023-05-13T12:16:34;26.10;99.90
18690;DHT22;9782;52.930;15.562;2023-05-13T12:19:04;26.10;99.90
18690;DHT22;9782;52.930;15.562;2023-05-13T12:21:33;26.10;99.90
18690;DHT22;9782;52.930;15.562;2023-05-13T12:23:59;26.10;99.90
18690;DHT22;9782;52.930;15.562;2023-05-13T12:26:26;26.20;99.90
18690;DHT22;9782;52.930;15.562;2023-05-13T12:28:57;26.30;99.90
18690;DHT22;9782;52.930;15.562;2023-05-13T12:31:24;26.40;99.90
18690;DHT22;9782;52.930;15.562;2023-05-13T12:33:51;26.50;99.90
18690;DHT22;9782;52.930;15.562;2023-05-13T12:36:19;26.60;99.90
18690;DHT22;9782;52.930;15.562;2023-05-13T12:38:55;26.60;99.90
18690;DHT22;9782;52.930;15.562;2023-05-13T12:41:22;26.70;99.90
18690;DHT22;9782;52.930;15.562;2023-05-13T12:43:51;26.70;99.90
18690;DHT22;9782;52.930;15.562;2023-05-13T12:46:17;26.80;99.90
18690;DHT22;9782;52.930;15.562;2023-05-13T12:48:45;27.00;99.90
18690;DHT22;9782;52.930;15.562;2023-05-13T12:51:12;27.10;99.90
18690;DHT22;9782;52.930;15.562;2023-05-13T12:53:40;27.10;99.90
18690;DHT22;9782;52.930;15.562;2023-05-13T12:56:08;27.00;99.90
18690;DHT22;9782;52.930;15.562;2023-05-13T12:58:35;26.80;99.90
18690;DHT22;9782;52.930;15.562;2023-05-13T13:01:02;26.80;99.90
18690;DHT22;9782;52.930;15.562;2023-05-13T13:03:29;27.00;99.90
18690;DHT22;9782;52.930;15.562;2023-05-13T13:05:55;27.10;99.90
18690;DHT22;9782;52.930;15.562;2023-05-13T13:08:23;27.00;99.90
18690;DHT22;9782;52.930;15.562;2023-05-13T13:10:50;27.00;99.90
18690;DHT22;9782;52.930;15.562;2023-05-13T13:13:19;27.00;99.90
18690;DHT22;9782;52.930;15.562;2023-05-13T13:15:45;27.00;99.90
18690;DHT22;9782;52.930;15.562;2023-05-13T13:18:12;27.20;99.90
18690;DHT22;9782;52.930;15.562;2023-05-13T13:20:39;27.30;99.90
18690;DHT22;9782;52.930;15.562;2023-05-13T13:23:06;27.30;99.90
18690;DHT22;9782;52.930;15.562;2023-05-13T13:25:33;27.30;99.90
18690;DHT22;9782;52.930;15.562;2023-05-13T13:28:00;27.40;99.90
18690;DHT22;9782;52.930;15.562;2023-05-13T13:30:29;27.40;99.90
18690;DHT22;9782;52.930;15.562;2023-05-13T13:32:56;27.40;99.90
18690;DHT22;9782;52.930;15.562;2023-05-13T13:35:23;27.20;99.90
18690;DHT22;9782;52.930;15.562;2023-05-13T13:37:49;27.00;99.90
18690;DHT22;9782;52.930;15.562;2023-05-13T13:40:16;26.80;99.90
18690;DHT22;9782;52.930;15.562;2023-05-13T13:42:44;26.80;99.90
18690;DHT22;9782;52.930;15.562;2023-05-13T13:45:11;26.70;99.90
18690;DHT22;9782;52.930;15.562;2023-05-13T13:47:40;26.70;99.90
18690;DHT22;9782;52.930;15.562;2023-05-13T13:50:07;26.70;99.90
18690;DHT22;9782;52.930;15.562;2023-05-13T13:52:34;26.90;99.90
18690;DHT22;9782;52.930;15.562;2023-05-13T13:55:01;27.10;99.90
18690;DHT22;9782;52.930;15.562;2023-05-13T13:57:28;27.10;99.90
18690;DHT22;9782;52.930;15.562;2023-05-13T13:59:55;27.10;99.90
18690;DHT22;9782;52.930;15.562;2023-05-13T14:02:22;27.10;99.90
18690;DHT22;9782;52.930;15.562;2023-05-13T14:04:50;27.10;99.90
18690;DHT22;9782;52.930;15.562;2023-05-13T14:07:18;27.00;99.90
18690;DHT22;9782;52.930;15.562;2023-05-13T14:09:45;27.00;99.90
18690;DHT22;9782;52.930;15.562;2023-05-13T14:12:11;26.80;99.90
18690;DHT22;9782;52.930;15.562;2023-05-13T14:14:38;26.70;99.90
18690;DHT22;9782;52.930;15.562;2023-05-13T14:17:05;26.60;99.90
18690;DHT22;9782;52.930;15.562;2023-05-13T14:19:33;26.50;99.90
18690;DHT22;9782;52.930;15.562;2023-05-13T14:22:01;26.50;99.90
18690;DHT22;9782;52.930;15.562;2023-05-13T14:24:28;26.40;99.90
18690;DHT22;9782;52.930;15.562;2023-05-13T14:26:55;26.50;99.90
18690;DHT22;9782;52.930;15.562;2023-05-13T14:29:22;26.70;99.90
18690;DHT22;9782;52.930;15.562;2023-05-13T14:31:49;26.80;99.90
18690;DHT22;9782;52.930;15.562;2023-05-13T14:34:16;26.70;99.90
18690;DHT22;9782;52.930;15.562;2023-05-13T14:36:42;26.50;99.90
18690;DHT22;9782;52.930;15.562;2023-05-13T14:39:11;26.50;99.90
18690;DHT22;9782;52.930;15.562;2023-05-13T14:41:38;26.60;99.90
18690;DHT22;9782;52.930;15.562;2023-05-13T14:44:05;26.80;99.90
18690;DHT22;9782;52.930;15.562;2023-05-13T14:46:32;26.90;99.90
18690;DHT22;9782;52.930;15.562;2023-05-13T14:49:01;26.90;99.90
18690;DHT22;9782;52.930;15.562;2023-05-13T14:51:28;27.00;99.90
18690;DHT22;9782;52.930;15.562;2023-05-13T14:53:55;27.00;99.90
18690;DHT22;9782;52.930;15.562;2023-05-13T14:56:23;26.80;99.90
18690;DHT22;9782;52.930;15.562;2023-05-13T14:58:51;26.70;99.90
18690;DHT22;9782;52.930;15.562;2023-05-13T15:01:18;26.30;99.90
18690;DHT22;9782;52.930;15.562;2023-05-13T15:03:44;25.70;99.90
18690;DHT22;9782;52.930;15.562;2023-05-13T15:06:11;25.20;99.90
18690;DHT22;9782;52.930;15.562;2023-05-13T15:08:38;24.80;99.90
18690;DHT22;9782;52.930;15.562;2023-05-13T15:11:05;24.70;99.90
18690;DHT22;9782;52.930;15.562;2023-05-13T15:13:34;24.70;99.90
18690;DHT22;9782;52.930;15.562;2023-05-13T15:16:01;24.80;99.90
18690;DHT22;9782;52.930;15.562;2023-05-13T15:18:28;24.80;99.90
18690;DHT22;9782;52.930;15.562;2023-05-13T15:20:55;24.80;99.90
18690;DHT22;9782;52.930;15.562;2023-05-13T15:23:22;24.60;99.90
18690;DHT22;9782;52.930;15.562;2023-05-13T15:25:49;24.40;99.90
18690;DHT22;9782;52.930;15.562;2023-05-13T15:28:16;24.20;99.90
18690;DHT22;9782;52.930;15.562;2023-05-13T15:30:44;24.10;99.90
18690;DHT22;9782;52.930;15.562;2023-05-13T15:33:11;24.10;99.90
18690;DHT22;9782;52.930;15.562;2023-05-13T15:35:38;24.10;99.90
18690;DHT22;9782;52.930;15.562;2023-05-13T15:38:06;24.10;99.90
18690;DHT22;9782;52.930;15.562;2023-05-13T15:40:34;23.90;99.90
18690;DHT22;9782;52.930;15.562;2023-05-13T15:43:01;23.60;99.90
18690;DHT22;9782;52.930;15.562;2023-05-13T15:45:28;23.60;99.90
18690;DHT22;9782;52.930;15.562;2023-05-13T15:47:56;23.70;99.90
18690;DHT22;9782;52.930;15.562;2023-05-13T15:50:23;23.80;99.90
18690;DHT22;9782;52.930;15.562;2023-05-13T15:52:50;23.90;99.90
18690;DHT22;9782;52.930;15.562;2023-05-13T15:55:19;23.90;99.90
18690;DHT22;9782;52.930;15.562;2023-05-13T15:57:45;23.90;99.90
18690;DHT22;9782;52.930;15.562;2023-05-13T16:00:14;23.90;99.90
18690;DHT22;9782;52.930;15.562;2023-05-13T16:02:41;23.90;99.90
18690;DHT22;9782;52.930;15.562;2023-05-13T16:05:10;23.80;99.90
18690;DHT22;9782;52.930;15.562;2023-05-13T16:07:39;23.70;99.90
18690;DHT22;9782;52.930;15.562;2023-05-13T16:10:06;23.70;99.90
18690;DHT22;9782;52.930;15.562;2023-05-13T16:12:33;23.60;99.90
18690;DHT22;9782;52.930;15.562;2023-05-13T16:15:00;23.50;99.90
18690;DHT22;9782;52.930;15.562;2023-05-13T16:17:27;23.50;99.90
18690;DHT22;9782;52.930;15.562;2023-05-13T16:19:54;23.50;99.90
18690;DHT22;9782;52.930;15.562;2023-05-13T16:22:26;23.50;99.90
18690;DHT22;9782;52.930;15.562;2023-05-13T16:24:56;23.40;99.90
18690;DHT22;9782;52.930;15.562;2023-05-13T16:27:23;23.40;99.90
18690;DHT22;9782;52.930;15.562;2023-05-13T16:29:51;23.40;99.90
18690;DHT22;9782;52.930;15.562;2023-05-13T16:32:18;23.40;99.90
18690;DHT22;9782;52.930;15.562;2023-05-13T16:34:45;23.40;99.90
18690;DHT22;9782;52.930;15.562;2023-05-13T16:37:12;23.40;99.90
18690;DHT22;9782;52.930;15.562;2023-05-13T16:39:40;23.40;99.90
18690;DHT22;9782;52.930;15.562;2023-05-13T16:42:07;23.40;99.90